sensor_id;sensor_type;location;lat;lon;timestamp;pressure;altitude;pressure_sealevel;temperature;humidity
85735;BME280;76179;42.316;22.856;2024-01-30T09:02:29;96194.50;;;24.16;28.66
85735;BME280;76179;42.316;22.856;2024-01-30T09:14:18;96195.56;;;9.86;26.11
85735;BME280;76179;42.316;22.856;2024-01-30T09:17:14;96205.22;;;9.11;26.87
85735;BME280;76179;42.316;22.856;2024-01-30T09:31:27;96181.63;;;4.92;35.17
85735;BME280;76179;42.316;22.856;2024-01-30T09:33:54;96151.13;;;4.25;36.93
85735;BME280;76179;42.316;22.856;2024-01-30T09:39:55;96158.09;;;3.83;40.05
85735;BME280;76179;42.316;22.856;2024-01-30T09:45:50;96137.78;;;3.18;39.01
85735;BME280;76179;42.316;22.856;2024-01-30T09:55:18;96145.13;;;4.32;38.37
85735;BME280;76179;42.316;22.856;2024-01-30T10:03:37;96151.81;;;4.38;38.96
85735;BME280;76179;42.316;22.856;2024-01-30T10:06:08;96140.50;;;4.17;37.21
85735;BME280;76179;42.316;22.856;2024-01-30T10:11:54;96113.84;;;3.00;39.21
85735;BME280;76179;42.316;22.856;2024-01-30T10:14:19;96110.47;;;3.03;40.38
85735;BME280;76179;42.316;22.856;2024-01-30T10:16:46;96125.25;;;3.09;40.61
85735;BME280;76179;42.316;22.856;2024-01-30T10:19:11;96127.91;;;3.22;40.25
85735;BME280;76179;42.316;22.856;2024-01-30T10:21:40;96127.00;;;3.30;40.00
85735;BME280;76179;42.316;22.856;2024-01-30T10:24:14;96108.69;;;3.07;39.84
85735;BME280;76179;42.316;22.856;2024-01-30T10:27:23;96130.44;;;2.90;40.20
85735;BME280;76179;42.316;22.856;2024-01-30T10:30:56;96124.03;;;3.07;40.20
85735;BME280;76179;42.316;22.856;2024-01-30T10:33:23;96091.63;;;3.03;39.75
85735;BME280;76179;42.316;22.856;2024-01-30T10:36:18;96109.75;;;3.19;39.69
85735;BME280;76179;42.316;22.856;2024-01-30T10:38:55;96107.13;;;3.34;40.87
85735;BME280;76179;42.316;22.856;2024-01-30T10:41:26;96130.13;;;3.60;40.05
85735;BME280;76179;42.316;22.856;2024-01-30T10:50:34;96098.91;;;3.43;39.52
85735;BME280;76179;42.316;22.856;2024-01-30T10:53:14;96105.53;;;3.45;39.67
85735;BME280;76179;42.316;22.856;2024-01-30T10:55:51;96094.25;;;2.88;40.77
85735;BME280;76179;42.316;22.856;2024-01-30T10:58:34;96097.84;;;2.92;40.44
85735;BME280;76179;42.316;22.856;2024-01-30T11:04:23;96101.19;;;3.01;40.96
85735;BME280;76179;42.316;22.856;2024-01-30T11:06:51;96087.03;;;3.04;40.87
85735;BME280;76179;42.316;22.856;2024-01-30T11:09:36;96102.81;;;2.78;41.09
85735;BME280;76179;42.316;22.856;2024-01-30T11:12:02;96087.53;;;2.82;41.05
85735;BME280;76179;42.316;22.856;2024-01-30T11:14:37;96064.16;;;2.70;40.61
85735;BME280;76179;42.316;22.856;2024-01-30T11:17:05;96055.34;;;2.97;41.29
85735;BME280;76179;42.316;22.856;2024-01-30T11:19:32;96063.41;;;2.97;39.70
85735;BME280;76179;42.316;22.856;2024-01-30T11:21:57;96075.28;;;2.96;41.93
85735;BME280;76179;42.316;22.856;2024-01-30T11:24:27;96062.91;;;3.20;40.74
85735;BME280;76179;42.316;22.856;2024-01-30T11:26:57;96085.03;;;3.57;41.49
85735;BME280;76179;42.316;22.856;2024-01-30T11:29:37;96042.09;;;3.04;40.05
85735;BME280;76179;42.316;22.856;2024-01-30T11:35:35;96027.28;;;2.83;41.84
85735;BME280;76179;42.316;22.856;2024-01-30T11:38:04;96031.34;;;3.32;41.14
85735;BME280;76179;42.316;22.856;2024-01-30T11:40:57;96028.25;;;3.46;41.20
85735;BME280;76179;42.316;22.856;2024-01-30T11:43:22;96029.75;;;3.75;40.70
85735;BME280;76179;42.316;22.856;2024-01-30T11:45:49;96034.47;;;3.78;39.34
85735;BME280;76179;42.316;22.856;2024-01-30T11:48:14;96009.44;;;3.77;39.03
85735;BME280;76179;42.316;22.856;2024-01-30T11:50:40;96038.13;;;4.01;38.97
85735;BME280;76179;42.316;22.856;2024-01-30T11:53:06;96007.94;;;3.96;39.45
85735;BME280;76179;42.316;22.856;2024-01-30T11:55:35;96021.16;;;4.16;38.14
85735;BME280;76179;42.316;22.856;2024-01-30T11:58:02;96021.75;;;4.41;38.07
85735;BME280;76179;42.316;22.856;2024-01-30T12:00:32;96032.72;;;4.17;38.72
85735;BME280;76179;42.316;22.856;2024-01-30T12:03:04;96023.88;;;4.01;38.50
85735;BME280;76179;42.316;22.856;2024-01-30T12:05:32;96027.59;;;3.80;38.31
85735;BME280;76179;42.316;22.856;2024-01-30T12:07:58;96026.28;;;3.90;39.29
85735;BME280;76179;42.316;22.856;2024-01-30T12:10:26;96023.88;;;4.01;38.56
85735;BME280;76179;42.316;22.856;2024-01-30T12:12:52;96024.19;;;4.15;38.64
85735;BME280;76179;42.316;22.856;2024-01-30T12:15:21;96004.13;;;4.12;38.68
85735;BME280;76179;42.316;22.856;2024-01-30T12:17:47;96012.72;;;4.18;38.06
85735;BME280;76179;42.316;22.856;2024-01-30T12:20:15;96013.31;;;4.27;37.86
85735;BME280;76179;42.316;22.856;2024-01-30T12:22:48;95982.41;;;4.05;37.35
85735;BME280;76179;42.316;22.856;2024-01-30T12:25:16;96005.84;;;4.20;37.72
85735;BME280;76179;42.316;22.856;2024-01-30T12:27:46;95990.28;;;4.14;37.60
85735;BME280;76179;42.316;22.856;2024-01-30T12:30:18;96012.94;;;4.44;36.53
85735;BME280;76179;42.316;22.856;2024-01-30T12:32:49;96008.16;;;4.38;38.38
85735;BME280;76179;42.316;22.856;2024-01-30T12:35:32;96005.91;;;4.40;37.54
85735;BME280;76179;42.316;22.856;2024-01-30T12:38:14;95993.78;;;3.99;38.67
85735;BME280;76179;42.316;22.856;2024-01-30T12:40:47;95999.28;;;4.02;38.97
85735;BME280;76179;42.316;22.856;2024-01-30T12:43:23;96015.44;;;4.18;38.85
85735;BME280;76179;42.316;22.856;2024-01-30T12:45:55;95986.84;;;3.66;39.23
85735;BME280;76179;42.316;22.856;2024-01-30T12:48:23;95975.91;;;3.59;39.67
85735;BME280;76179;42.316;22.856;2024-01-30T12:50:52;95998.03;;;3.53;39.29
85735;BME280;76179;42.316;22.856;2024-01-30T12:53:21;96008.84;;;3.84;38.98
85735;BME280;76179;42.316;22.856;2024-01-30T12:55:46;95997.97;;;3.80;39.56
85735;BME280;76179;42.316;22.856;2024-01-30T12:58:17;95990.75;;;4.00;38.91
85735;BME280;76179;42.316;22.856;2024-01-30T13:00:52;96002.38;;;3.88;38.98
85735;BME280;76179;42.316;22.856;2024-01-30T13:03:19;95977.63;;;3.83;38.78
85735;BME280;76179;42.316;22.856;2024-01-30T13:05:52;96007.94;;;4.11;38.89
85735;BME280;76179;42.316;22.856;2024-01-30T13:08:18;95997.44;;;4.06;39.12
85735;BME280;76179;42.316;22.856;2024-01-30T13:10:43;95995.34;;;4.15;38.31
85735;BME280;76179;42.316;22.856;2024-01-30T13:13:09;95989.69;;;4.05;38.22
85735;BME280;76179;42.316;22.856;2024-01-30T13:15:35;95995.69;;;3.98;39.02
85735;BME280;76179;42.316;22.856;2024-01-30T13:18:02;95986.00;;;3.78;39.06
85735;BME280;76179;42.316;22.856;2024-01-30T13:20:28;95997.44;;;3.59;38.68
85735;BME280;76179;42.316;22.856;2024-01-30T13:22:59;96013.59;;;3.59;39.21
85735;BME280;76179;42.316;22.856;2024-01-30T13:25:32;95987.06;;;3.30;39.90
85735;BME280;76179;42.316;22.856;2024-01-30T13:27:58;95972.91;;;2.89;41.21
85735;BME280;76179;42.316;22.856;2024-01-30T13:30:29;95996.03;;;3.06;40.08
85735;BME280;76179;42.316;22.856;2024-01-30T13:33:00;95981.75;;;2.90;42.02
85735;BME280;76179;42.316;22.856;2024-01-30T13:35:26;95998.16;;;2.85;41.36
85735;BME280;76179;42.316;22.856;2024-01-30T13:37:57;95970.88;;;2.70;40.93
85735;BME280;76179;42.316;22.856;2024-01-30T13:40:39;95982.94;;;2.77;41.65
85735;BME280;76179;42.316;22.856;2024-01-30T13:43:09;96010.28;;;3.06;41.27
85735;BME280;76179;42.316;22.856;2024-01-30T13:45:34;95977.09;;;2.75;41.31
85735;BME280;76179;42.316;22.856;2024-01-30T13:48:03;95987.28;;;2.81;42.23
85735;BME280;76179;42.316;22.856;2024-01-30T13:50:31;96015.91;;;3.01;42.08
85735;BME280;76179;42.316;22.856;2024-01-30T13:53:02;96004.91;;;2.94;42.18
85735;BME280;76179;42.316;22.856;2024-01-30T14:09:30;95994.03;;;3.03;41.50
85735;BME280;76179;42.316;22.856;2024-01-30T14:11:57;96013.34;;;2.93;41.30
85735;BME280;76179;42.316;22.856;2024-01-30T14:14:22;96009.44;;;2.90;42.29
85735;BME280;76179;42.316;22.856;2024-01-30T14:16:48;95996.19;;;2.69;42.09
85735;BME280;76179;42.316;22.856;2024-01-30T14:19:13;95987.00;;;2.70;42.23
85735;BME280;76179;42.316;22.856;2024-01-30T14:21:38;95998.75;;;2.66;41.60
85735;BME280;76179;42.316;22.856;2024-01-30T14:24:04;95996.78;;;2.51;42.70
85735;BME280;76179;42.316;22.856;2024-01-30T14:29:06;95977.59;;;2.24;43.18
85735;BME280;76179;42.316;22.856;2024-01-30T14:31:32;95984.38;;;2.34;42.97
85735;BME280;76179;42.316;22.856;2024-01-30T14:33:57;95989.22;;;2.28;43.05
85735;BME280;76179;42.316;22.856;2024-01-30T14:36:24;95996.38;;;2.24;43.18
85735;BME280;76179;42.316;22.856;2024-01-30T14:38:53;95985.75;;;2.16;43.81
85735;BME280;76179;42.316;22.856;2024-01-30T14:41:18;95967.50;;;2.21;43.34
85735;BME280;76179;42.316;22.856;2024-01-30T14:43:44;95977.34;;;2.29;43.02
85735;BME280;76179;42.316;22.856;2024-01-30T14:46:09;95971.44;;;2.24;42.81
85735;BME280;76179;42.316;22.856;2024-01-30T14:48:35;95970.66;;;2.23;42.64
85735;BME280;76179;42.316;22.856;2024-01-30T14:51:00;95968.63;;;2.20;42.59
85735;BME280;76179;42.316;22.856;2024-01-30T14:53:26;95977.13;;;2.22;42.75
85735;BME280;76179;42.316;22.856;2024-01-30T14:55:52;95985.53;;;2.21;42.95
85735;BME280;76179;42.316;22.856;2024-01-30T14:58:18;95985.41;;;2.17;42.88
85735;BME280;76179;42.316;22.856;2024-01-30T15:00:43;95984.09;;;1.99;42.92
85735;BME280;76179;42.316;22.856;2024-01-30T15:03:09;95984.28;;;1.94;41.47
85735;BME280;76179;42.316;22.856;2024-01-30T15:05:34;95990.81;;;1.93;42.60
85735;BME280;76179;42.316;22.856;2024-01-30T15:08:00;95977.81;;;1.83;43.00
85735;BME280;76179;42.316;22.856;2024-01-30T15:10:25;95979.16;;;1.65;42.35
85735;BME280;76179;42.316;22.856;2024-01-30T15:12:51;95983.63;;;1.61;44.27
85735;BME280;76179;42.316;22.856;2024-01-30T15:15:16;95997.38;;;1.47;44.33
85735;BME280;76179;42.316;22.856;2024-01-30T15:17:42;95976.44;;;1.40;44.18
85735;BME280;76179;42.316;22.856;2024-01-30T15:20:07;95973.97;;;1.35;44.92
85735;BME280;76179;42.316;22.856;2024-01-30T15:22:33;95986.03;;;1.29;43.75
85735;BME280;76179;42.316;22.856;2024-01-30T15:24:58;95988.47;;;1.22;44.08
85735;BME280;76179;42.316;22.856;2024-01-30T15:27:24;95993.84;;;1.22;44.29
85735;BME280;76179;42.316;22.856;2024-01-30T15:29:50;95981.09;;;1.19;44.65
85735;BME280;76179;42.316;22.856;2024-01-30T15:32:16;95992.03;;;1.14;45.49
85735;BME280;76179;42.316;22.856;2024-01-30T15:34:41;95986.44;;;1.07;45.47
85735;BME280;76179;42.316;22.856;2024-01-30T15:37:07;95983.81;;;0.98;45.61
85735;BME280;76179;42.316;22.856;2024-01-30T15:39:32;95988.19;;;1.03;45.45
85735;BME280;76179;42.316;22.856;2024-01-30T15:41:57;95989.28;;;1.02;43.89
85735;BME280;76179;42.316;22.856;2024-01-30T15:44:26;95992.06;;;0.93;44.99
85735;BME280;76179;42.316;22.856;2024-01-30T15:46:51;95988.06;;;0.99;43.28
85735;BME280;76179;42.316;22.856;2024-01-30T15:49:16;95994.25;;;1.12;43.16
85735;BME280;76179;42.316;22.856;2024-01-30T15:51:42;95992.22;;;1.09;43.68
85735;BME280;76179;42.316;22.856;2024-01-30T15:54:08;95994.72;;;1.14;43.47
85735;BME280;76179;42.316;22.856;2024-01-30T15:56:33;95985.50;;;1.03;42.57
85735;BME280;76179;42.316;22.856;2024-01-30T15:58:58;95984.41;;;1.04;43.40
85735;BME280;76179;42.316;22.856;2024-01-30T16:01:24;95984.59;;;0.99;43.45
85735;BME280;76179;42.316;22.856;2024-01-30T16:03:49;96001.41;;;1.08;42.06
85735;BME280;76179;42.316;22.856;2024-01-30T16:06:14;96008.75;;;1.11;44.27
85735;BME280;76179;42.316;22.856;2024-01-30T16:08:40;96005.91;;;0.95;44.38
85735;BME280;76179;42.316;22.856;2024-01-30T16:11:08;96020.06;;;0.84;43.41
85735;BME280;76179;42.316;22.856;2024-01-30T16:13:34;96019.53;;;0.90;44.25
85735;BME280;76179;42.316;22.856;2024-01-30T16:16:05;96024.97;;;0.82;44.12
85735;BME280;76179;42.316;22.856;2024-01-30T16:18:31;96021.16;;;0.83;44.47
85735;BME280;76179;42.316;22.856;2024-01-30T16:20:57;96029.41;;;0.77;44.74
85735;BME280;76179;42.316;22.856;2024-01-30T16:23:23;96032.28;;;0.72;45.05
85735;BME280;76179;42.316;22.856;2024-01-30T16:25:48;96023.66;;;0.67;44.94
85735;BME280;76179;42.316;22.856;2024-01-30T16:28:14;96023.09;;;0.61;45.27
85735;BME280;76179;42.316;22.856;2024-01-30T16:30:39;96022.63;;;0.59;45.59
85735;BME280;76179;42.316;22.856;2024-01-30T16:33:04;96015.09;;;0.53;45.42
85735;BME280;76179;42.316;22.856;2024-01-30T16:35:30;96017.59;;;0.58;44.31
85735;BME280;76179;42.316;22.856;2024-01-30T16:37:55;96027.03;;;0.55;44.59
85735;BME280;76179;42.316;22.856;2024-01-30T16:40:20;96018.09;;;0.51;44.95
85735;BME280;76179;42.316;22.856;2024-01-30T16:42:46;96028.69;;;0.48;45.47
85735;BME280;76179;42.316;22.856;2024-01-30T16:45:11;96020.84;;;0.43;44.74
85735;BME280;76179;42.316;22.856;2024-01-30T16:47:37;96023.94;;;0.53;44.45
85735;BME280;76179;42.316;22.856;2024-01-30T16:52:41;96015.44;;;0.51;44.52
85735;BME280;76179;42.316;22.856;2024-01-30T16:55:07;96012.06;;;0.54;44.01
85735;BME280;76179;42.316;22.856;2024-01-30T16:57:33;96010.66;;;0.57;43.79
85735;BME280;76179;42.316;22.856;2024-01-30T16:59:58;96016.47;;;0.59;43.43
85735;BME280;76179;42.316;22.856;2024-01-30T17:02:24;96020.06;;;0.63;43.42
85735;BME280;76179;42.316;22.856;2024-01-30T17:04:49;96014.13;;;0.57;44.20
85735;BME280;76179;42.316;22.856;2024-01-30T17:07:14;96015.03;;;0.61;43.30
85735;BME280;76179;42.316;22.856;2024-01-30T17:09:40;96023.19;;;0.65;42.31
85735;BME280;76179;42.316;22.856;2024-01-30T17:12:05;96010.59;;;0.65;42.24
85735;BME280;76179;42.316;22.856;2024-01-30T17:14:31;96019.81;;;0.76;42.17
85735;BME280;76179;42.316;22.856;2024-01-30T17:16:57;96018.25;;;0.75;43.60
85735;BME280;76179;42.316;22.856;2024-01-30T17:19:22;96015.09;;;0.73;43.20
85735;BME280;76179;42.316;22.856;2024-01-30T17:21:48;96022.50;;;0.76;42.72
85735;BME280;76179;42.316;22.856;2024-01-30T17:24:13;96032.84;;;0.78;43.30
85735;BME280;76179;42.316;22.856;2024-01-30T17:26:40;96031.31;;;0.77;42.75
85735;BME280;76179;42.316;22.856;2024-01-30T17:29:07;96032.78;;;0.87;42.90
85735;BME280;76179;42.316;22.856;2024-01-30T17:31:32;96029.41;;;0.77;44.21
85735;BME280;76179;42.316;22.856;2024-01-30T17:33:57;96044.97;;;0.84;44.34
85735;BME280;76179;42.316;22.856;2024-01-30T17:36:23;96045.56;;;0.90;43.96
85735;BME280;76179;42.316;22.856;2024-01-30T17:38:50;96049.47;;;0.92;44.19
85735;BME280;76179;42.316;22.856;2024-01-30T17:41:16;96030.56;;;0.89;43.98
85735;BME280;76179;42.316;22.856;2024-01-30T17:43:41;96047.59;;;0.93;44.38
85735;BME280;76179;42.316;22.856;2024-01-30T17:46:07;96046.59;;;0.97;44.05
85735;BME280;76179;42.316;22.856;2024-01-30T17:48:32;96046.66;;;0.89;43.66
85735;BME280;76179;42.316;22.856;2024-01-30T17:50:58;96057.63;;;0.96;44.05
85735;BME280;76179;42.316;22.856;2024-01-30T17:53:23;96051.03;;;0.93;44.02
85735;BME280;76179;42.316;22.856;2024-01-30T17:55:48;96058.47;;;0.88;43.63
85735;BME280;76179;42.316;22.856;2024-01-30T17:58:14;96049.22;;;0.85;43.61
85735;BME280;76179;42.316;22.856;2024-01-30T18:00:40;96059.34;;;0.80;43.19
85735;BME280;76179;42.316;22.856;2024-01-30T18:03:05;96065.28;;;0.64;44.34
85735;BME280;76179;42.316;22.856;2024-01-30T18:05:30;96058.41;;;0.55;44.68
85735;BME280;76179;42.316;22.856;2024-01-30T18:07:56;96055.94;;;0.50;44.10
85735;BME280;76179;42.316;22.856;2024-01-30T18:10:21;96055.13;;;0.49;43.89
85735;BME280;76179;42.316;22.856;2024-01-30T18:12:46;96046.72;;;0.59;44.78
85735;BME280;76179;42.316;22.856;2024-01-30T18:15:12;96053.41;;;0.53;44.22
85735;BME280;76179;42.316;22.856;2024-01-30T18:17:38;96059.88;;;0.23;46.38
85735;BME280;76179;42.316;22.856;2024-01-30T18:20:04;96061.63;;;0.19;45.58
85735;BME280;76179;42.316;22.856;2024-01-30T18:22:33;96054.69;;;0.18;46.80
85735;BME280;76179;42.316;22.856;2024-01-30T18:24:58;96034.28;;;0.34;45.50
85735;BME280;76179;42.316;22.856;2024-01-30T18:27:24;96054.38;;;0.19;45.68
85735;BME280;76179;42.316;22.856;2024-01-30T18:29:49;96053.59;;;0.19;45.45
85735;BME280;76179;42.316;22.856;2024-01-30T18:32:15;96036.88;;;0.22;46.06
85735;BME280;76179;42.316;22.856;2024-01-30T18:34:40;96050.88;;;0.27;44.79
85735;BME280;76179;42.316;22.856;2024-01-30T18:37:05;96054.00;;;0.29;45.43
85735;BME280;76179;42.316;22.856;2024-01-30T18:39:33;96055.78;;;0.17;46.36
85735;BME280;76179;42.316;22.856;2024-01-30T18:41:58;96054.03;;;0.00;45.71
85735;BME280;76179;42.316;22.856;2024-01-30T18:44:24;96053.53;;;-0.02;46.33
85735;BME280;76179;42.316;22.856;2024-01-30T18:46:49;96054.88;;;-0.17;46.70
85735;BME280;76179;42.316;22.856;2024-01-30T18:49:15;96058.69;;;-0.26;48.29
85735;BME280;76179;42.316;22.856;2024-01-30T18:51:41;96046.91;;;-0.34;48.33
85735;BME280;76179;42.316;22.856;2024-01-30T18:54:06;96055.28;;;-0.53;49.00
85735;BME280;76179;42.316;22.856;2024-01-30T18:56:32;96050.44;;;-0.59;48.82
85735;BME280;76179;42.316;22.856;2024-01-30T18:58:57;96043.72;;;-0.74;49.86
85735;BME280;76179;42.316;22.856;2024-01-30T19:01:23;96060.41;;;-0.86;49.60
85735;BME280;76179;42.316;22.856;2024-01-30T19:03:48;96063.03;;;-0.77;49.76
85735;BME280;76179;42.316;22.856;2024-01-30T19:06:14;96070.75;;;-0.84;50.82
85735;BME280;76179;42.316;22.856;2024-01-30T19:08:39;96059.16;;;-1.05;51.46
85735;BME280;76179;42.316;22.856;2024-01-30T19:11:05;96063.56;;;-1.09;51.79
85735;BME280;76179;42.316;22.856;2024-01-30T19:13:30;96075.34;;;-1.02;50.67
85735;BME280;76179;42.316;22.856;2024-01-30T19:15:56;96075.66;;;-0.95;50.51
85735;BME280;76179;42.316;22.856;2024-01-30T19:18:22;96056.97;;;-1.03;50.66
85735;BME280;76179;42.316;22.856;2024-01-30T19:20:47;96067.94;;;-0.96;50.81
85735;BME280;76179;42.316;22.856;2024-01-30T19:23:14;96073.59;;;-0.98;51.21
85735;BME280;76179;42.316;22.856;2024-01-30T19:25:40;96069.22;;;-1.02;51.10
85735;BME280;76179;42.316;22.856;2024-01-30T19:28:05;96079.91;;;-1.02;51.00
85735;BME280;76179;42.316;22.856;2024-01-30T19:30:31;96057.75;;;-1.03;50.95
85735;BME280;76179;42.316;22.856;2024-01-30T19:32:57;96054.75;;;-1.01;51.03
85735;BME280;76179;42.316;22.856;2024-01-30T19:35:22;96055.19;;;-0.91;50.63
85735;BME280;76179;42.316;22.856;2024-01-30T19:37:48;96057.41;;;-0.93;51.25
85735;BME280;76179;42.316;22.856;2024-01-30T19:40:14;96052.22;;;-0.98;50.82
85735;BME280;76179;42.316;22.856;2024-01-30T19:42:39;96052.72;;;-0.96;50.72
85735;BME280;76179;42.316;22.856;2024-01-30T19:45:05;96039.84;;;-1.11;50.36
85735;BME280;76179;42.316;22.856;2024-01-30T19:47:38;96053.03;;;-1.32;51.45
85735;BME280;76179;42.316;22.856;2024-01-30T19:50:04;96043.47;;;-1.33;50.89
85735;BME280;76179;42.316;22.856;2024-01-30T19:52:29;96041.41;;;-1.44;50.76
85735;BME280;76179;42.316;22.856;2024-01-30T19:54:55;96048.59;;;-1.62;51.86
85735;BME280;76179;42.316;22.856;2024-01-30T19:57:20;96048.13;;;-1.64;52.20
85735;BME280;76179;42.316;22.856;2024-01-30T19:59:45;96041.38;;;-1.62;52.19
85735;BME280;76179;42.316;22.856;2024-01-30T20:02:11;96036.81;;;-1.61;52.49
85735;BME280;76179;42.316;22.856;2024-01-30T20:04:41;96034.47;;;-1.54;51.62
85735;BME280;76179;42.316;22.856;2024-01-30T20:07:06;96038.09;;;-1.41;52.11
85735;BME280;76179;42.316;22.856;2024-01-30T20:09:31;96035.13;;;-1.48;52.82
85735;BME280;76179;42.316;22.856;2024-01-30T20:11:58;96031.69;;;-1.40;52.57
85735;BME280;76179;42.316;22.856;2024-01-30T20:14:23;96032.59;;;-1.36;52.10
85735;BME280;76179;42.316;22.856;2024-01-30T20:16:49;96028.34;;;-1.37;52.44
85735;BME280;76179;42.316;22.856;2024-01-30T20:19:15;96024.28;;;-1.52;51.74
85735;BME280;76179;42.316;22.856;2024-01-30T20:21:41;96029.72;;;-1.83;52.22
85735;BME280;76179;42.316;22.856;2024-01-30T20:24:08;96014.66;;;-1.87;53.08
85735;BME280;76179;42.316;22.856;2024-01-30T20:26:34;96029.06;;;-2.06;53.67
85735;BME280;76179;42.316;22.856;2024-01-30T20:29:02;96036.09;;;-2.18;54.80
85735;BME280;76179;42.316;22.856;2024-01-30T20:31:28;96031.22;;;-2.08;54.46
85735;BME280;76179;42.316;22.856;2024-01-30T20:33:53;96030.16;;;-2.07;55.29
85735;BME280;76179;42.316;22.856;2024-01-30T20:36:20;96033.41;;;-2.18;55.08
85735;BME280;76179;42.316;22.856;2024-01-30T20:38:46;96030.78;;;-2.10;53.95
85735;BME280;76179;42.316;22.856;2024-01-30T20:41:12;96015.66;;;-2.23;54.48
85735;BME280;76179;42.316;22.856;2024-01-30T20:43:42;96032.53;;;-2.45;55.29
85735;BME280;76179;42.316;22.856;2024-01-30T20:46:08;96025.84;;;-2.64;56.28
85735;BME280;76179;42.316;22.856;2024-01-30T20:48:43;96014.25;;;-2.60;55.95
85735;BME280;76179;42.316;22.856;2024-01-30T20:51:10;96029.50;;;-2.52;56.14
85735;BME280;76179;42.316;22.856;2024-01-30T20:53:36;96016.28;;;-2.65;56.12
85735;BME280;76179;42.316;22.856;2024-01-30T20:56:02;96025.09;;;-3.10;57.08
85735;BME280;76179;42.316;22.856;2024-01-30T20:58:27;96010.69;;;-3.08;57.24
85735;BME280;76179;42.316;22.856;2024-01-30T21:00:56;96018.25;;;-3.02;56.35
85735;BME280;76179;42.316;22.856;2024-01-30T21:03:21;96001.53;;;-3.02;57.65
85735;BME280;76179;42.316;22.856;2024-01-30T21:05:49;96008.25;;;-3.27;58.48
85735;BME280;76179;42.316;22.856;2024-01-30T21:08:15;96000.44;;;-3.46;58.56
85735;BME280;76179;42.316;22.856;2024-01-30T21:10:41;96002.94;;;-3.27;59.65
85735;BME280;76179;42.316;22.856;2024-01-30T21:13:06;96007.63;;;-3.46;60.21
85735;BME280;76179;42.316;22.856;2024-01-30T21:15:32;96010.22;;;-3.33;59.67
85735;BME280;76179;42.316;22.856;2024-01-30T21:17:57;95999.47;;;-3.28;59.90
85735;BME280;76179;42.316;22.856;2024-01-30T21:20:23;96014.88;;;-3.16;58.36
85735;BME280;76179;42.316;22.856;2024-01-30T21:22:48;95990.63;;;-3.15;58.73
85735;BME280;76179;42.316;22.856;2024-01-30T21:25:13;96010.97;;;-3.19;59.19
85735;BME280;76179;42.316;22.856;2024-01-30T21:27:39;96009.19;;;-3.45;58.51
85735;BME280;76179;42.316;22.856;2024-01-30T21:30:07;96027.09;;;-3.60;59.96
85735;BME280;76179;42.316;22.856;2024-01-30T21:32:33;96015.97;;;-3.62;59.87
85735;BME280;76179;42.316;22.856;2024-01-30T21:34:58;96026.78;;;-3.58;62.05
85735;BME280;76179;42.316;22.856;2024-01-30T21:37:24;96018.91;;;-3.63;60.70
85735;BME280;76179;42.316;22.856;2024-01-30T21:39:50;96015.44;;;-3.50;60.35
85735;BME280;76179;42.316;22.856;2024-01-30T21:42:16;96017.75;;;-3.35;60.09
85735;BME280;76179;42.316;22.856;2024-01-30T21:44:41;96015.88;;;-3.34;60.34
85735;BME280;76179;42.316;22.856;2024-01-30T21:47:07;96019.31;;;-3.34;59.46
85735;BME280;76179;42.316;22.856;2024-01-30T21:49:33;96013.22;;;-3.34;60.44
85735;BME280;76179;42.316;22.856;2024-01-30T21:51:58;96015.16;;;-3.26;60.02
85735;BME280;76179;42.316;22.856;2024-01-30T21:54:30;96012.00;;;-3.51;59.37
85735;BME280;76179;42.316;22.856;2024-01-30T21:56:55;96002.78;;;-3.67;59.33
85735;BME280;76179;42.316;22.856;2024-01-30T21:59:20;96009.72;;;-3.79;59.80
85735;BME280;76179;42.316;22.856;2024-01-30T22:01:46;96008.84;;;-4.02;59.95
85735;BME280;76179;42.316;22.856;2024-01-30T22:04:11;96003.66;;;-4.07;61.54
85735;BME280;76179;42.316;22.856;2024-01-30T22:06:37;96010.03;;;-3.95;61.69
85735;BME280;76179;42.316;22.856;2024-01-30T22:09:04;96000.09;;;-3.89;60.63
85735;BME280;76179;42.316;22.856;2024-01-30T22:11:30;96006.03;;;-4.06;60.08
85735;BME280;76179;42.316;22.856;2024-01-30T22:13:55;96013.28;;;-3.98;60.61
85735;BME280;76179;42.316;22.856;2024-01-30T22:16:20;96000.16;;;-3.94;61.19
85735;BME280;76179;42.316;22.856;2024-01-30T22:18:46;96008.34;;;-3.91;60.25
85735;BME280;76179;42.316;22.856;2024-01-30T22:21:11;96013.97;;;-3.92;59.83
85735;BME280;76179;42.316;22.856;2024-01-30T22:23:40;96009.13;;;-3.90;60.46
85735;BME280;76179;42.316;22.856;2024-01-30T22:26:05;96013.00;;;-4.10;60.76
85735;BME280;76179;42.316;22.856;2024-01-30T22:28:31;96011.25;;;-4.14;60.60
85735;BME280;76179;42.316;22.856;2024-01-30T22:30:56;96013.00;;;-4.10;60.10
85735;BME280;76179;42.316;22.856;2024-01-30T22:33:22;96009.88;;;-4.12;61.30
85735;BME280;76179;42.316;22.856;2024-01-30T22:35:48;96000.81;;;-4.24;62.08
85735;BME280;76179;42.316;22.856;2024-01-30T22:38:14;96003.06;;;-4.04;61.24
85735;BME280;76179;42.316;22.856;2024-01-30T22:40:39;95994.69;;;-3.98;61.39
85735;BME280;76179;42.316;22.856;2024-01-30T22:43:05;95995.06;;;-3.91;62.07
85735;BME280;76179;42.316;22.856;2024-01-30T22:45:30;95981.47;;;-3.89;61.19
85735;BME280;76179;42.316;22.856;2024-01-30T22:47:56;95990.69;;;-3.87;60.07
85735;BME280;76179;42.316;22.856;2024-01-30T22:50:21;95993.84;;;-3.84;60.03
85735;BME280;76179;42.316;22.856;2024-01-30T22:52:47;95971.72;;;-3.94;60.30
85735;BME280;76179;42.316;22.856;2024-01-30T22:55:12;95972.03;;;-3.95;61.98
85735;BME280;76179;42.316;22.856;2024-01-30T22:57:38;95972.31;;;-3.97;62.34
85735;BME280;76179;42.316;22.856;2024-01-30T23:00:09;95979.88;;;-3.90;62.18
85735;BME280;76179;42.316;22.856;2024-01-30T23:02:51;95974.66;;;-3.81;62.19
85735;BME280;76179;42.316;22.856;2024-01-30T23:05:19;95972.06;;;-3.87;61.95
85735;BME280;76179;42.316;22.856;2024-01-30T23:07:49;95986.88;;;-3.80;61.61
85735;BME280;76179;42.316;22.856;2024-01-30T23:10:16;95976.94;;;-3.89;62.45
85735;BME280;76179;42.316;22.856;2024-01-30T23:12:53;95953.66;;;-3.83;61.69
85735;BME280;76179;42.316;22.856;2024-01-30T23:15:19;95961.16;;;-3.85;61.66
85735;BME280;76179;42.316;22.856;2024-01-30T23:17:45;95959.78;;;-3.82;61.76